Disclaimer

Please do not use the information listed here in-flight or in-navigation, as they are not provided to us by the airports but are provided by volunteers, so they might be outdated.

Search


Regions


Airport information page

Radio informations:
Tower (TWR) - 120.9 MHz
Approach (APP) - 120.9 MHz

Airport informations:
Latitude: 50° 14' 45.00" N
Longitude: 057° 12' 24.00" E
Elevation: 738 feet - 225 meters
Operating hours: N/A
Operating agency: Civil government, landing fees and diplomatic clearance may be required
Timezone: UTC+5
Fuel: Jet A1, without icing nhibitor.

91/96 octane gasoline, leaded, No MIL Spec.

Runway information:
13/31 - 10160 x 196 feet< - >3097 x 60 meters

Recent METARs:
UATT 201700Z 20002MPS CAVOK M05/M12 Q1021 R13/0///60 NOSIG RMK QFE746/0994
UATT 201730Z 23003MPS CAVOK M04/M12 Q1020 R13/0///60 NOSIG RMK QFE745/0994
UATT 201800Z 20003MPS 9999 OVC049 M04/M12 Q1020 R13/0///60 NOSIG RMK QFE745/0994

Airport on the map: